sensor_id;sensor_type;location;lat;lon;timestamp;pressure;altitude;pressure_sealevel;temperature;humidity
61554;BME280;47425;51.976;5.326;2023-07-24T00:00:40;100332.56;;;22.32;58.43
61554;BME280;47425;51.976;5.326;2023-07-24T00:03:06;100322.72;;;22.21;59.37
61554;BME280;47425;51.976;5.326;2023-07-24T00:05:34;100317.97;;;22.13;59.06
61554;BME280;47425;51.976;5.326;2023-07-24T00:08:02;100319.06;;;22.11;59.10
61554;BME280;47425;51.976;5.326;2023-07-24T00:10:29;100330.09;;;22.18;58.66
61554;BME280;47425;51.976;5.326;2023-07-24T00:12:55;100317.13;;;22.24;58.78
61554;BME280;47425;51.976;5.326;2023-07-24T00:15:23;100318.72;;;22.27;58.59
61554;BME280;47425;51.976;5.326;2023-07-24T00:17:51;100322.97;;;22.29;58.52
61554;BME280;47425;51.976;5.326;2023-07-24T00:20:18;100311.91;;;22.34;58.37
61554;BME280;47425;51.976;5.326;2023-07-24T00:22:44;100315.25;;;22.38;58.67
61554;BME280;47425;51.976;5.326;2023-07-24T00:25:12;100309.78;;;22.39;58.06
61554;BME280;47425;51.976;5.326;2023-07-24T00:27:39;100312.19;;;22.42;57.52
61554;BME280;47425;51.976;5.326;2023-07-24T00:30:07;100306.84;;;22.42;58.14
61554;BME280;47425;51.976;5.326;2023-07-24T00:32:34;100304.19;;;22.42;58.19
61554;BME280;47425;51.976;5.326;2023-07-24T00:35:04;100297.19;;;22.41;58.24
61554;BME280;47425;51.976;5.326;2023-07-24T00:37:31;100286.50;;;22.41;57.71
61554;BME280;47425;51.976;5.326;2023-07-24T00:39:57;100280.19;;;22.42;58.22
61554;BME280;47425;51.976;5.326;2023-07-24T00:42:25;100280.56;;;22.38;58.59
61554;BME280;47425;51.976;5.326;2023-07-24T00:44:52;100273.38;;;22.38;58.32
61554;BME280;47425;51.976;5.326;2023-07-24T00:47:20;100258.00;;;22.42;57.50
61554;BME280;47425;51.976;5.326;2023-07-24T00:49:48;100267.44;;;22.46;58.15
61554;BME280;47425;51.976;5.326;2023-07-24T00:52:18;100265.63;;;22.35;58.42
61554;BME280;47425;51.976;5.326;2023-07-24T00:54:45;100255.06;;;22.45;58.56
61554;BME280;47425;51.976;5.326;2023-07-24T00:57:13;100248.41;;;22.39;58.40
61554;BME280;47425;51.976;5.326;2023-07-24T00:59:41;100249.25;;;22.40;57.86
61554;BME280;47425;51.976;5.326;2023-07-24T01:02:09;100252.06;;;22.50;57.65
61554;BME280;47425;51.976;5.326;2023-07-24T01:04:38;100254.81;;;22.59;57.00
61554;BME280;47425;51.976;5.326;2023-07-24T01:07:05;100256.41;;;22.62;57.24
61554;BME280;47425;51.976;5.326;2023-07-24T01:09:33;100257.00;;;22.66;56.88
61554;BME280;47425;51.976;5.326;2023-07-24T01:12:07;100251.16;;;22.72;56.61
61554;BME280;47425;51.976;5.326;2023-07-24T01:14:44;100254.09;;;22.69;56.50
61554;BME280;47425;51.976;5.326;2023-07-24T01:17:16;100255.41;;;22.74;57.16
61554;BME280;47425;51.976;5.326;2023-07-24T01:19:49;100254.09;;;22.69;56.65
61554;BME280;47425;51.976;5.326;2023-07-24T01:22:25;100249.84;;;22.66;57.10
61554;BME280;47425;51.976;5.326;2023-07-24T01:25:05;100244.38;;;22.68;56.97
61554;BME280;47425;51.976;5.326;2023-07-24T01:27:42;100240.25;;;22.63;57.27
61554;BME280;47425;51.976;5.326;2023-07-24T01:30:10;100242.94;;;22.63;57.39
61554;BME280;47425;51.976;5.326;2023-07-24T01:32:37;100240.66;;;22.59;57.16
61554;BME280;47425;51.976;5.326;2023-07-24T01:35:05;100245.13;;;22.58;57.47
61554;BME280;47425;51.976;5.326;2023-07-24T01:37:34;100237.63;;;22.52;57.49
61554;BME280;47425;51.976;5.326;2023-07-24T01:40:02;100237.25;;;22.45;57.87
61554;BME280;47425;51.976;5.326;2023-07-24T01:42:30;100231.94;;;22.45;57.81
61554;BME280;47425;51.976;5.326;2023-07-24T01:44:58;100221.38;;;22.44;58.21
61554;BME280;47425;51.976;5.326;2023-07-24T01:47:25;100226.09;;;22.40;57.88
61554;BME280;47425;51.976;5.326;2023-07-24T01:49:53;100213.47;;;22.42;57.65
61554;BME280;47425;51.976;5.326;2023-07-24T01:52:20;100224.50;;;22.49;57.27
61554;BME280;47425;51.976;5.326;2023-07-24T01:54:46;100219.66;;;22.54;57.08
61554;BME280;47425;51.976;5.326;2023-07-24T01:57:15;100214.41;;;22.64;56.87
61554;BME280;47425;51.976;5.326;2023-07-24T01:59:41;100212.09;;;22.71;57.04
61554;BME280;47425;51.976;5.326;2023-07-24T02:02:10;100212.00;;;22.61;57.11
61554;BME280;47425;51.976;5.326;2023-07-24T02:04:38;100215.63;;;22.60;57.16
61554;BME280;47425;51.976;5.326;2023-07-24T02:07:04;100203.91;;;22.51;57.77
61554;BME280;47425;51.976;5.326;2023-07-24T02:09:31;100198.91;;;22.46;57.48
61554;BME280;47425;51.976;5.326;2023-07-24T02:11:58;100208.13;;;22.42;57.79
61554;BME280;47425;51.976;5.326;2023-07-24T02:14:26;100210.09;;;22.40;57.46
61554;BME280;47425;51.976;5.326;2023-07-24T02:16:53;100205.38;;;22.44;57.73
61554;BME280;47425;51.976;5.326;2023-07-24T02:19:21;100197.72;;;22.39;57.63
61554;BME280;47425;51.976;5.326;2023-07-24T02:21:48;100175.16;;;22.32;57.78
61554;BME280;47425;51.976;5.326;2023-07-24T02:24:15;100196.03;;;22.38;57.63
61554;BME280;47425;51.976;5.326;2023-07-24T02:26:42;100195.44;;;22.35;58.04
61554;BME280;47425;51.976;5.326;2023-07-24T02:29:09;100195.31;;;22.36;57.91
61554;BME280;47425;51.976;5.326;2023-07-24T02:31:35;100187.31;;;22.36;57.69
61554;BME280;47425;51.976;5.326;2023-07-24T02:34:03;100179.50;;;22.33;58.19
61554;BME280;47425;51.976;5.326;2023-07-24T02:36:31;100180.50;;;22.32;58.11
61554;BME280;47425;51.976;5.326;2023-07-24T02:38:58;100186.19;;;22.27;58.33
61554;BME280;47425;51.976;5.326;2023-07-24T02:41:26;100187.50;;;22.33;57.72
61554;BME280;47425;51.976;5.326;2023-07-24T02:43:52;100181.72;;;22.39;57.80
61554;BME280;47425;51.976;5.326;2023-07-24T02:46:20;100181.25;;;22.45;57.24
61554;BME280;47425;51.976;5.326;2023-07-24T02:48:50;100182.81;;;22.48;57.50
61554;BME280;47425;51.976;5.326;2023-07-24T02:51:18;100174.19;;;22.44;57.37
61554;BME280;47425;51.976;5.326;2023-07-24T02:53:46;100170.91;;;22.41;57.73
61554;BME280;47425;51.976;5.326;2023-07-24T02:56:13;100167.91;;;22.45;57.36
61554;BME280;47425;51.976;5.326;2023-07-24T02:58:40;100162.91;;;22.41;57.40
61554;BME280;47425;51.976;5.326;2023-07-24T03:01:07;100164.50;;;22.43;57.47
61554;BME280;47425;51.976;5.326;2023-07-24T03:03:34;100180.25;;;22.46;57.70
61554;BME280;47425;51.976;5.326;2023-07-24T03:06:01;100176.72;;;22.46;57.43
61554;BME280;47425;51.976;5.326;2023-07-24T03:08:29;100178.44;;;22.47;58.09
61554;BME280;47425;51.976;5.326;2023-07-24T03:10:57;100165.09;;;22.36;58.29
61554;BME280;47425;51.976;5.326;2023-07-24T03:13:26;100154.44;;;22.24;57.99
61554;BME280;47425;51.976;5.326;2023-07-24T03:15:53;100157.59;;;22.29;57.95
61554;BME280;47425;51.976;5.326;2023-07-24T03:18:21;100152.25;;;22.29;58.00
61554;BME280;47425;51.976;5.326;2023-07-24T03:20:49;100141.72;;;22.28;58.02
61554;BME280;47425;51.976;5.326;2023-07-24T03:23:16;100144.38;;;22.28;57.82
61554;BME280;47425;51.976;5.326;2023-07-24T03:25:45;100154.78;;;22.20;58.84
61554;BME280;47425;51.976;5.326;2023-07-24T03:28:14;100149.09;;;22.13;58.34
61554;BME280;47425;51.976;5.326;2023-07-24T03:30:41;100159.19;;;22.09;58.93
61554;BME280;47425;51.976;5.326;2023-07-24T03:33:07;100154.47;;;22.02;58.99
61554;BME280;47425;51.976;5.326;2023-07-24T03:35:35;100148.91;;;21.93;59.50
61554;BME280;47425;51.976;5.326;2023-07-24T03:38:02;100148.41;;;21.88;59.45
61554;BME280;47425;51.976;5.326;2023-07-24T03:40:30;100149.63;;;21.84;59.92
61554;BME280;47425;51.976;5.326;2023-07-24T03:42:57;100148.16;;;21.80;59.35
61554;BME280;47425;51.976;5.326;2023-07-24T03:45:26;100150.47;;;21.73;59.85
61554;BME280;47425;51.976;5.326;2023-07-24T03:47:53;100153.84;;;21.64;59.67
61554;BME280;47425;51.976;5.326;2023-07-24T03:50:19;100162.09;;;21.61;60.10
61554;BME280;47425;51.976;5.326;2023-07-24T03:52:46;100157.69;;;21.49;60.67
61554;BME280;47425;51.976;5.326;2023-07-24T03:55:14;100153.06;;;21.39;61.07
61554;BME280;47425;51.976;5.326;2023-07-24T03:57:42;100137.44;;;21.35;60.81
61554;BME280;47425;51.976;5.326;2023-07-24T04:00:10;100145.91;;;21.28;61.02
61554;BME280;47425;51.976;5.326;2023-07-24T04:02:39;100141.03;;;21.22;61.03
61554;BME280;47425;51.976;5.326;2023-07-24T04:05:06;100140.06;;;21.23;61.65
61554;BME280;47425;51.976;5.326;2023-07-24T04:07:35;100144.66;;;21.21;61.22
61554;BME280;47425;51.976;5.326;2023-07-24T04:10:06;100131.38;;;21.33;61.29
61554;BME280;47425;51.976;5.326;2023-07-24T04:12:35;100127.16;;;21.41;60.46
61554;BME280;47425;51.976;5.326;2023-07-24T04:15:02;100136.78;;;21.67;59.72
61554;BME280;47425;51.976;5.326;2023-07-24T04:17:29;100137.97;;;21.74;59.56
61554;BME280;47425;51.976;5.326;2023-07-24T04:19:59;100145.63;;;21.78;59.29
61554;BME280;47425;51.976;5.326;2023-07-24T04:22:26;100144.16;;;21.86;59.40
61554;BME280;47425;51.976;5.326;2023-07-24T04:24:53;100145.75;;;21.88;59.49
61554;BME280;47425;51.976;5.326;2023-07-24T04:27:20;100147.78;;;21.85;58.85
61554;BME280;47425;51.976;5.326;2023-07-24T04:29:46;100144.53;;;21.92;58.65
61554;BME280;47425;51.976;5.326;2023-07-24T04:32:13;100145.25;;;22.06;57.94
61554;BME280;47425;51.976;5.326;2023-07-24T04:34:39;100148.88;;;22.16;58.03
61554;BME280;47425;51.976;5.326;2023-07-24T04:37:07;100144.97;;;22.09;57.97
61554;BME280;47425;51.976;5.326;2023-07-24T04:39:38;100153.13;;;21.96;59.00
61554;BME280;47425;51.976;5.326;2023-07-24T04:42:05;100148.41;;;21.77;59.54
61554;BME280;47425;51.976;5.326;2023-07-24T04:44:31;100166.22;;;21.65;59.79
61554;BME280;47425;51.976;5.326;2023-07-24T04:46:58;100170.75;;;21.52;60.07
61554;BME280;47425;51.976;5.326;2023-07-24T04:49:28;100158.94;;;21.56;59.91
61554;BME280;47425;51.976;5.326;2023-07-24T04:51:55;100165.72;;;21.71;59.53
61554;BME280;47425;51.976;5.326;2023-07-24T04:54:23;100165.63;;;21.73;59.09
61554;BME280;47425;51.976;5.326;2023-07-24T04:56:49;100161.75;;;21.77;59.27
61554;BME280;47425;51.976;5.326;2023-07-24T04:59:17;100159.91;;;21.77;59.37
61554;BME280;47425;51.976;5.326;2023-07-24T05:01:44;100165.72;;;21.71;59.31
61554;BME280;47425;51.976;5.326;2023-07-24T05:04:10;100165.34;;;21.65;59.79
61554;BME280;47425;51.976;5.326;2023-07-24T05:06:38;100167.28;;;21.62;59.90
61554;BME280;47425;51.976;5.326;2023-07-24T05:09:05;100144.47;;;21.47;60.14
61554;BME280;47425;51.976;5.326;2023-07-24T05:11:33;100162.03;;;21.50;59.98
61554;BME280;47425;51.976;5.326;2023-07-24T05:13:59;100160.25;;;21.61;60.03
61554;BME280;47425;51.976;5.326;2023-07-24T05:16:27;100165.59;;;21.61;60.07
61554;BME280;47425;51.976;5.326;2023-07-24T05:18:54;100158.41;;;21.51;60.68
61554;BME280;47425;51.976;5.326;2023-07-24T05:21:21;100167.22;;;21.40;60.60
61554;BME280;47425;51.976;5.326;2023-07-24T05:23:47;100164.94;;;21.46;60.34
61554;BME280;47425;51.976;5.326;2023-07-24T05:26:14;100162.94;;;21.61;60.02
61554;BME280;47425;51.976;5.326;2023-07-24T05:28:42;100165.97;;;21.57;60.53
61554;BME280;47425;51.976;5.326;2023-07-24T05:31:09;100170.09;;;21.61;60.46
61554;BME280;47425;51.976;5.326;2023-07-24T05:33:55;100162.56;;;21.55;60.33
61554;BME280;47425;51.976;5.326;2023-07-24T05:36:22;100162.56;;;21.55;59.88
61554;BME280;47425;51.976;5.326;2023-07-24T05:38:48;100160.00;;;21.53;60.41
61554;BME280;47425;51.976;5.326;2023-07-24T05:41:15;100159.38;;;21.50;60.56
61554;BME280;47425;51.976;5.326;2023-07-24T05:43:44;100167.59;;;21.46;61.05
61554;BME280;47425;51.976;5.326;2023-07-24T05:46:11;100159.06;;;21.54;60.40
61554;BME280;47425;51.976;5.326;2023-07-24T05:48:40;100162.81;;;21.63;59.95
61554;BME280;47425;51.976;5.326;2023-07-24T05:51:07;100169.72;;;21.66;60.15
61554;BME280;47425;51.976;5.326;2023-07-24T05:53:35;100173.72;;;21.71;60.13
61554;BME280;47425;51.976;5.326;2023-07-24T05:56:02;100173.25;;;21.77;59.69
61554;BME280;47425;51.976;5.326;2023-07-24T05:58:29;100170.44;;;21.79;59.75
61554;BME280;47425;51.976;5.326;2023-07-24T06:00:57;100173.25;;;21.77;59.39
61554;BME280;47425;51.976;5.326;2023-07-24T06:03:25;100175.06;;;21.77;59.58
61554;BME280;47425;51.976;5.326;2023-07-24T06:05:52;100173.38;;;21.76;60.09
61554;BME280;47425;51.976;5.326;2023-07-24T06:08:19;100165.72;;;21.71;59.71
61554;BME280;47425;51.976;5.326;2023-07-24T06:10:48;100168.66;;;21.91;59.26
61554;BME280;47425;51.976;5.326;2023-07-24T06:13:15;100177.13;;;22.07;59.28
61554;BME280;47425;51.976;5.326;2023-07-24T06:15:42;100178.19;;;22.05;58.98
61554;BME280;47425;51.976;5.326;2023-07-24T06:18:10;100171.56;;;22.10;58.80
61554;BME280;47425;51.976;5.326;2023-07-24T06:20:38;100182.56;;;22.28;58.22
61554;BME280;47425;51.976;5.326;2023-07-24T06:23:05;100176.63;;;22.36;57.98
61554;BME280;47425;51.976;5.326;2023-07-24T06:25:32;100177.69;;;22.45;57.82
61554;BME280;47425;51.976;5.326;2023-07-24T06:27:59;100185.94;;;22.53;57.47
61554;BME280;47425;51.976;5.326;2023-07-24T06:30:27;100181.94;;;22.48;57.30
61554;BME280;47425;51.976;5.326;2023-07-24T06:32:54;100193.22;;;22.40;58.07
61554;BME280;47425;51.976;5.326;2023-07-24T06:35:26;100185.22;;;22.40;58.07
61554;BME280;47425;51.976;5.326;2023-07-24T06:37:55;100184.38;;;22.51;58.00
61554;BME280;47425;51.976;5.326;2023-07-24T06:40:24;100185.94;;;22.53;57.91
61554;BME280;47425;51.976;5.326;2023-07-24T06:42:51;100195.88;;;22.51;58.08
61554;BME280;47425;51.976;5.326;2023-07-24T06:45:20;100181.47;;;22.54;57.78
61554;BME280;47425;51.976;5.326;2023-07-24T06:47:51;100188.84;;;22.61;57.66
61554;BME280;47425;51.976;5.326;2023-07-24T06:50:18;100183.94;;;22.67;57.25
61554;BME280;47425;51.976;5.326;2023-07-24T06:52:47;100182.63;;;22.72;57.18
61554;BME280;47425;51.976;5.326;2023-07-24T06:55:16;100187.34;;;22.69;57.58
61554;BME280;47425;51.976;5.326;2023-07-24T06:57:44;100190.66;;;22.61;57.66
61554;BME280;47425;51.976;5.326;2023-07-24T07:00:12;100182.38;;;22.64;57.87
61554;BME280;47425;51.976;5.326;2023-07-24T07:02:39;100194.53;;;22.68;57.00
61554;BME280;47425;51.976;5.326;2023-07-24T07:05:10;100191.34;;;22.74;57.06
61554;BME280;47425;51.976;5.326;2023-07-24T07:07:41;100194.00;;;22.74;56.92
61554;BME280;47425;51.976;5.326;2023-07-24T07:10:10;100202.00;;;22.74;57.18
61554;BME280;47425;51.976;5.326;2023-07-24T07:12:36;100204.94;;;22.71;56.98
61554;BME280;47425;51.976;5.326;2023-07-24T07:15:05;100193.53;;;22.69;56.90
61554;BME280;47425;51.976;5.326;2023-07-24T07:17:32;100192.19;;;22.75;56.93
61554;BME280;47425;51.976;5.326;2023-07-24T07:19:59;100200.16;;;22.86;56.72
61554;BME280;47425;51.976;5.326;2023-07-24T07:22:31;100189.00;;;22.81;56.94
61554;BME280;47425;51.976;5.326;2023-07-24T07:25:09;100195.56;;;22.77;56.39
61554;BME280;47425;51.976;5.326;2023-07-24T07:27:36;100190.16;;;22.67;56.44
61554;BME280;47425;51.976;5.326;2023-07-24T07:30:03;100190.38;;;22.64;56.63
61554;BME280;47425;51.976;5.326;2023-07-24T07:32:32;100189.06;;;22.58;56.69
61554;BME280;47425;51.976;5.326;2023-07-24T07:35:00;100185.22;;;22.51;57.00
61554;BME280;47425;51.976;5.326;2023-07-24T07:37:26;100182.09;;;22.35;57.28
61554;BME280;47425;51.976;5.326;2023-07-24T07:39:53;100177.34;;;22.27;57.20
61554;BME280;47425;51.976;5.326;2023-07-24T07:42:22;100180.50;;;22.32;57.70
61554;BME280;47425;51.976;5.326;2023-07-24T07:44:49;100180.50;;;22.32;57.87
61554;BME280;47425;51.976;5.326;2023-07-24T07:47:15;100178.34;;;22.37;58.03
61554;BME280;47425;51.976;5.326;2023-07-24T07:49:43;100174.31;;;22.43;57.89
61554;BME280;47425;51.976;5.326;2023-07-24T07:52:16;100169.56;;;22.46;57.80
61554;BME280;47425;51.976;5.326;2023-07-24T07:54:46;100176.13;;;22.54;58.03
61554;BME280;47425;51.976;5.326;2023-07-24T07:57:12;100168.31;;;22.62;57.17
61554;BME280;47425;51.976;5.326;2023-07-24T07:59:41;100173.50;;;22.75;57.36
61554;BME280;47425;51.976;5.326;2023-07-24T08:02:08;100171.72;;;22.96;56.93
61554;BME280;47425;51.976;5.326;2023-07-24T08:04:35;100173.72;;;23.04;55.99
61554;BME280;47425;51.976;5.326;2023-07-24T08:07:02;100173.00;;;23.13;56.12
61554;BME280;47425;51.976;5.326;2023-07-24T08:09:32;100174.75;;;23.24;55.60
61554;BME280;47425;51.976;5.326;2023-07-24T08:12:01;100180.84;;;23.26;55.63
61554;BME280;47425;51.976;5.326;2023-07-24T08:14:27;100181.28;;;23.32;55.30
61554;BME280;47425;51.976;5.326;2023-07-24T08:16:57;100177.72;;;23.42;55.30
61554;BME280;47425;51.976;5.326;2023-07-24T08:19:27;100186.94;;;23.59;54.33
61554;BME280;47425;51.976;5.326;2023-07-24T08:21:54;100189.94;;;23.66;54.68
61554;BME280;47425;51.976;5.326;2023-07-24T08:24:21;100188.78;;;23.59;54.29
61554;BME280;47425;51.976;5.326;2023-07-24T08:26:48;100189.84;;;23.46;54.37
61554;BME280;47425;51.976;5.326;2023-07-24T08:29:16;100191.25;;;23.29;54.90
61554;BME280;47425;51.976;5.326;2023-07-24T08:31:43;100184.63;;;23.24;54.94
61554;BME280;47425;51.976;5.326;2023-07-24T08:34:11;100181.09;;;23.23;55.04
61554;BME280;47425;51.976;5.326;2023-07-24T08:36:40;100182.13;;;23.32;54.91
61554;BME280;47425;51.976;5.326;2023-07-24T08:39:18;100187.66;;;23.40;55.05
61554;BME280;47425;51.976;5.326;2023-07-24T08:41:53;100192.44;;;23.37;54.63
61554;BME280;47425;51.976;5.326;2023-07-24T08:44:21;100193.13;;;23.18;55.01
61554;BME280;47425;51.976;5.326;2023-07-24T08:46:51;100181.25;;;23.10;54.75
61554;BME280;47425;51.976;5.326;2023-07-24T08:49:21;100192.66;;;23.12;55.44
61554;BME280;47425;51.976;5.326;2023-07-24T08:51:48;100188.53;;;23.20;55.01
61554;BME280;47425;51.976;5.326;2023-07-24T08:54:15;100189.13;;;23.12;55.02
61554;BME280;47425;51.976;5.326;2023-07-24T08:56:44;100183.78;;;23.12;54.83
61554;BME280;47425;51.976;5.326;2023-07-24T08:59:13;100185.97;;;23.18;54.41
61554;BME280;47425;51.976;5.326;2023-07-24T09:01:42;100176.28;;;23.38;54.22
61554;BME280;47425;51.976;5.326;2023-07-24T09:04:10;100168.25;;;23.38;53.60
61554;BME280;47425;51.976;5.326;2023-07-24T09:06:45;100173.47;;;23.40;54.09
61554;BME280;47425;51.976;5.326;2023-07-24T09:09:16;100156.78;;;23.48;54.05
61554;BME280;47425;51.976;5.326;2023-07-24T09:11:46;100158.34;;;23.50;53.21
61554;BME280;47425;51.976;5.326;2023-07-24T09:14:23;100150.06;;;23.53;53.22
61554;BME280;47425;51.976;5.326;2023-07-24T09:17:02;100137.69;;;23.52;53.32
61554;BME280;47425;51.976;5.326;2023-07-24T09:19:30;100137.28;;;23.57;53.32
61554;BME280;47425;51.976;5.326;2023-07-24T09:22:09;100144.13;;;23.50;53.33
61554;BME280;47425;51.976;5.326;2023-07-24T09:24:38;100146.75;;;23.61;53.22
61554;BME280;47425;51.976;5.326;2023-07-24T09:27:05;100135.31;;;23.59;52.85
61554;BME280;47425;51.976;5.326;2023-07-24T09:29:34;100122.75;;;23.50;52.92
61554;BME280;47425;51.976;5.326;2023-07-24T09:32:01;100111.28;;;23.38;53.72
61554;BME280;47425;51.976;5.326;2023-07-24T09:34:29;100118.09;;;23.21;53.57
61554;BME280;47425;51.976;5.326;2023-07-24T09:36:57;100123.91;;;23.26;53.75
61554;BME280;47425;51.976;5.326;2023-07-24T09:39:24;100123.72;;;23.49;53.47
61554;BME280;47425;51.976;5.326;2023-07-24T09:41:51;100123.78;;;23.58;52.92
61554;BME280;47425;51.976;5.326;2023-07-24T09:44:21;100126.91;;;23.63;53.09
61554;BME280;47425;51.976;5.326;2023-07-24T09:46:50;100134.53;;;23.68;53.08
61554;BME280;47425;51.976;5.326;2023-07-24T09:49:19;100131.31;;;23.74;52.63
61554;BME280;47425;51.976;5.326;2023-07-24T09:51:52;100140.78;;;23.78;52.61
61554;BME280;47425;51.976;5.326;2023-07-24T09:54:26;100138.13;;;23.88;52.32
61554;BME280;47425;51.976;5.326;2023-07-24T09:56:58;100132.00;;;23.98;51.83
61554;BME280;47425;51.976;5.326;2023-07-24T09:59:29;100132.97;;;23.96;51.92
61554;BME280;47425;51.976;5.326;2023-07-24T10:01:57;100133.84;;;23.76;51.59
61554;BME280;47425;51.976;5.326;2023-07-24T10:04:24;100138.44;;;23.64;51.08
61554;BME280;47425;51.976;5.326;2023-07-24T10:06:51;100132.47;;;23.51;51.57
61554;BME280;47425;51.976;5.326;2023-07-24T10:09:19;100131.19;;;23.76;51.50
61554;BME280;47425;51.976;5.326;2023-07-24T10:11:54;100122.06;;;23.88;50.89
61554;BME280;47425;51.976;5.326;2023-07-24T10:14:22;100125.63;;;23.89;50.97
61554;BME280;47425;51.976;5.326;2023-07-24T10:16:49;100121.78;;;23.82;50.22
61554;BME280;47425;51.976;5.326;2023-07-24T10:19:21;100104.91;;;23.81;49.80
61554;BME280;47425;51.976;5.326;2023-07-24T10:21:51;100101.78;;;23.76;50.33
61554;BME280;47425;51.976;5.326;2023-07-24T10:24:28;100107.66;;;23.70;51.19
61554;BME280;47425;51.976;5.326;2023-07-24T10:27:02;100116.56;;;23.80;51.81
61554;BME280;47425;51.976;5.326;2023-07-24T10:29:34;100119.53;;;23.77;51.42
61554;BME280;47425;51.976;5.326;2023-07-24T10:32:02;100121.47;;;23.75;51.75
61554;BME280;47425;51.976;5.326;2023-07-24T10:34:36;100110.97;;;23.62;52.32
61554;BME280;47425;51.976;5.326;2023-07-24T10:37:03;100111.53;;;23.56;53.46
61554;BME280;47425;51.976;5.326;2023-07-24T10:39:37;100108.09;;;23.44;53.59
61554;BME280;47425;51.976;5.326;2023-07-24T10:42:08;100105.72;;;23.20;53.62
61554;BME280;47425;51.976;5.326;2023-07-24T10:44:36;100097.44;;;23.23;53.82
61554;BME280;47425;51.976;5.326;2023-07-24T10:47:08;100104.84;;;23.40;53.90
61554;BME280;47425;51.976;5.326;2023-07-24T10:49:36;100102.91;;;23.42;53.43
61554;BME280;47425;51.976;5.326;2023-07-24T10:52:04;100106.63;;;23.30;53.25
61554;BME280;47425;51.976;5.326;2023-07-24T10:54:34;100098.94;;;23.16;53.48
61554;BME280;47425;51.976;5.326;2023-07-24T10:57:00;100109.69;;;23.25;52.38
61554;BME280;47425;51.976;5.326;2023-07-24T10:59:38;100105.38;;;23.34;53.00
61554;BME280;47425;51.976;5.326;2023-07-24T11:02:07;100108.59;;;23.59;52.66
61554;BME280;47425;51.976;5.326;2023-07-24T11:04:35;100111.34;;;23.78;52.81
61554;BME280;47425;51.976;5.326;2023-07-24T11:07:02;100113.34;;;23.86;52.19
61554;BME280;47425;51.976;5.326;2023-07-24T11:09:36;100126.47;;;23.89;52.26
61554;BME280;47425;51.976;5.326;2023-07-24T11:12:11;100125.88;;;23.86;52.26
61554;BME280;47425;51.976;5.326;2023-07-24T11:14:58;100119.59;;;23.96;52.17
61554;BME280;47425;51.976;5.326;2023-07-24T11:17:33;100131.44;;;24.04;51.94
61554;BME280;47425;51.976;5.326;2023-07-24T11:20:07;100140.06;;;24.17;51.50
61554;BME280;47425;51.976;5.326;2023-07-24T11:22:38;100133.19;;;24.15;51.60
61554;BME280;47425;51.976;5.326;2023-07-24T11:25:09;100138.09;;;24.09;52.50
61554;BME280;47425;51.976;5.326;2023-07-24T11:27:40;100137.09;;;24.10;51.47
61554;BME280;47425;51.976;5.326;2023-07-24T11:30:12;100141.06;;;24.16;51.79
61554;BME280;47425;51.976;5.326;2023-07-24T11:32:46;100141.16;;;24.05;51.08
61554;BME280;47425;51.976;5.326;2023-07-24T11:35:14;100150.06;;;24.05;51.53
61554;BME280;47425;51.976;5.326;2023-07-24T11:37:41;100145.84;;;24.12;51.23
61554;BME280;47425;51.976;5.326;2023-07-24T11:40:12;100149.09;;;24.26;50.87
61554;BME280;47425;51.976;5.326;2023-07-24T11:42:44;100151.19;;;24.22;50.94
61554;BME280;47425;51.976;5.326;2023-07-24T11:45:15;100152.97;;;24.02;51.41
61554;BME280;47425;51.976;5.326;2023-07-24T11:47:45;100158.78;;;23.86;51.44
61554;BME280;47425;51.976;5.326;2023-07-24T11:50:14;100158.31;;;23.71;51.99
61554;BME280;47425;51.976;5.326;2023-07-24T11:52:42;100148.69;;;23.59;52.30
61554;BME280;47425;51.976;5.326;2023-07-24T11:55:13;100148.81;;;23.57;52.48
61554;BME280;47425;51.976;5.326;2023-07-24T11:57:41;100143.94;;;23.62;52.75
61554;BME280;47425;51.976;5.326;2023-07-24T12:00:19;100149.00;;;23.66;52.15
61554;BME280;47425;51.976;5.326;2023-07-24T12:02:49;100142.22;;;23.61;52.21
61554;BME280;47425;51.976;5.326;2023-07-24T12:05:16;100151.66;;;23.66;52.50
61554;BME280;47425;51.976;5.326;2023-07-24T12:07:44;100150.97;;;23.63;52.51
61554;BME280;47425;51.976;5.326;2023-07-24T12:10:24;100145.50;;;23.65;52.63
61554;BME280;47425;51.976;5.326;2023-07-24T12:12:51;100142.13;;;23.73;52.26
61554;BME280;47425;51.976;5.326;2023-07-24T12:15:19;100133.31;;;23.82;52.42
61554;BME280;47425;51.976;5.326;2023-07-24T12:17:50;100135.94;;;23.93;52.29
61554;BME280;47425;51.976;5.326;2023-07-24T12:20:18;100129.63;;;24.04;52.19
61554;BME280;47425;51.976;5.326;2023-07-24T12:22:44;100135.28;;;24.21;51.41
61554;BME280;47425;51.976;5.326;2023-07-24T12:25:17;100109.06;;;24.05;52.03
61554;BME280;47425;51.976;5.326;2023-07-24T12:27:46;100120.94;;;24.12;52.02
61554;BME280;47425;51.976;5.326;2023-07-24T12:30:13;100112.91;;;24.22;52.75
61554;BME280;47425;51.976;5.326;2023-07-24T12:32:44;100109.66;;;24.18;52.54
61554;BME280;47425;51.976;5.326;2023-07-24T12:35:13;100112.63;;;24.25;52.15
61554;BME280;47425;51.976;5.326;2023-07-24T12:37:44;100113.31;;;24.17;51.98
61554;BME280;47425;51.976;5.326;2023-07-24T12:40:11;100104.97;;;24.10;51.65
61554;BME280;47425;51.976;5.326;2023-07-24T12:42:38;100114.84;;;24.00;52.25
61554;BME280;47425;51.976;5.326;2023-07-24T12:45:09;100117.91;;;23.95;52.45
61554;BME280;47425;51.976;5.326;2023-07-24T12:47:35;100130.63;;;24.13;51.56
61554;BME280;47425;51.976;5.326;2023-07-24T12:50:04;100137.00;;;24.22;52.04
61554;BME280;47425;51.976;5.326;2023-07-24T12:52:31;100127.69;;;24.16;52.50
61554;BME280;47425;51.976;5.326;2023-07-24T12:54:59;100128.50;;;24.07;52.51
61554;BME280;47425;51.976;5.326;2023-07-24T12:57:26;100121.19;;;24.09;53.15